sensor_id;sensor_type;location;lat;lon;timestamp;pressure;altitude;pressure_sealevel;temperature;humidity
57572;BME280;44459;43.522;24.470;2023-04-21T00:01:14;99720.72;;;10.76;100.00
57572;BME280;44459;43.522;24.470;2023-04-21T00:03:40;99720.75;;;10.78;100.00
57572;BME280;44459;43.522;24.470;2023-04-21T00:06:07;99721.63;;;10.75;100.00
57572;BME280;44459;43.522;24.470;2023-04-21T00:08:33;99723.38;;;10.73;100.00
57572;BME280;44459;43.522;24.470;2023-04-21T00:11:04;99728.69;;;10.72;100.00
57572;BME280;44459;43.522;24.470;2023-04-21T00:13:30;99722.53;;;10.68;100.00
57572;BME280;44459;43.522;24.470;2023-04-21T00:15:55;99729.56;;;10.68;100.00
57572;BME280;44459;43.522;24.470;2023-04-21T00:18:21;99721.63;;;10.69;100.00
57572;BME280;44459;43.522;24.470;2023-04-21T00:20:46;99711.97;;;10.68;100.00
57572;BME280;44459;43.522;24.470;2023-04-21T00:23:12;99708.47;;;10.65;100.00
57572;BME280;44459;43.522;24.470;2023-04-21T00:25:38;99718.13;;;10.66;100.00
57572;BME280;44459;43.522;24.470;2023-04-21T00:28:03;99714.59;;;10.62;100.00
57572;BME280;44459;43.522;24.470;2023-04-21T00:30:29;99704.09;;;10.57;100.00
57572;BME280;44459;43.522;24.470;2023-04-21T00:32:54;99702.34;;;10.55;100.00
57572;BME280;44459;43.522;24.470;2023-04-21T00:35:20;99708.50;;;10.48;100.00
57572;BME280;44459;43.522;24.470;2023-04-21T00:37:45;99691.81;;;10.40;100.00
57572;BME280;44459;43.522;24.470;2023-04-21T00:40:11;99698.84;;;10.32;100.00
57572;BME280;44459;43.522;24.470;2023-04-21T00:42:37;99700.63;;;10.22;100.00
57572;BME280;44459;43.522;24.470;2023-04-21T00:45:03;99696.25;;;10.27;100.00
57572;BME280;44459;43.522;24.470;2023-04-21T00:47:29;99691.81;;;10.25;100.00
57572;BME280;44459;43.522;24.470;2023-04-21T00:49:56;99688.31;;;10.26;100.00
57572;BME280;44459;43.522;24.470;2023-04-21T00:52:21;99691.81;;;10.29;100.00
57572;BME280;44459;43.522;24.470;2023-04-21T00:54:47;99680.41;;;10.29;100.00
57572;BME280;44459;43.522;24.470;2023-04-21T00:57:13;99683.91;;;10.32;99.87
57572;BME280;44459;43.522;24.470;2023-04-21T00:59:39;99681.25;;;10.40;99.66
57572;BME280;44459;43.522;24.470;2023-04-21T01:02:04;99690.03;;;10.43;98.91
57572;BME280;44459;43.522;24.470;2023-04-21T01:04:30;99682.13;;;10.46;98.49
57572;BME280;44459;43.522;24.470;2023-04-21T01:07:04;99676.81;;;10.49;98.14
57572;BME280;44459;43.522;24.470;2023-04-21T01:09:30;99680.34;;;10.57;97.93
57572;BME280;44459;43.522;24.470;2023-04-21T01:12:03;99675.94;;;10.61;97.04
57572;BME280;44459;43.522;24.470;2023-04-21T01:14:29;99672.38;;;10.64;96.93
57572;BME280;44459;43.522;24.470;2023-04-21T01:16:55;99667.09;;;10.64;96.75
57572;BME280;44459;43.522;24.470;2023-04-21T01:19:22;99669.75;;;10.65;95.79
57572;BME280;44459;43.522;24.470;2023-04-21T01:21:49;99664.47;;;10.65;96.05
57572;BME280;44459;43.522;24.470;2023-04-21T01:24:15;99670.63;;;10.64;96.82
57572;BME280;44459;43.522;24.470;2023-04-21T01:26:41;99684.69;;;10.68;96.10
57572;BME280;44459;43.522;24.470;2023-04-21T01:29:08;99675.00;;;10.71;96.30
57572;BME280;44459;43.522;24.470;2023-04-21T01:31:34;99668.84;;;10.66;96.12
57572;BME280;44459;43.522;24.470;2023-04-21T01:34:03;99667.09;;;10.71;96.05
57572;BME280;44459;43.522;24.470;2023-04-21T01:36:29;99672.38;;;10.76;96.20
57572;BME280;44459;43.522;24.470;2023-04-21T01:38:56;99683.78;;;10.78;96.05
57572;BME280;44459;43.522;24.470;2023-04-21T01:41:21;99682.91;;;10.76;96.62
57572;BME280;44459;43.522;24.470;2023-04-21T01:43:46;99681.16;;;10.79;96.62
57572;BME280;44459;43.522;24.470;2023-04-21T01:46:12;99676.72;;;10.80;96.43
57572;BME280;44459;43.522;24.470;2023-04-21T01:48:37;99674.09;;;10.78;96.87
57572;BME280;44459;43.522;24.470;2023-04-21T01:51:03;99689.94;;;10.78;96.25
57572;BME280;44459;43.522;24.470;2023-04-21T01:53:28;99682.00;;;10.80;97.10
57572;BME280;44459;43.522;24.470;2023-04-21T01:55:54;99689.03;;;10.84;96.51
57572;BME280;44459;43.522;24.470;2023-04-21T01:58:20;99686.41;;;10.82;96.83
57572;BME280;44459;43.522;24.470;2023-04-21T02:00:45;99687.28;;;10.84;96.00
57572;BME280;44459;43.522;24.470;2023-04-21T02:03:11;99691.63;;;10.90;95.71
57572;BME280;44459;43.522;24.470;2023-04-21T02:05:36;99686.34;;;10.90;94.64
57572;BME280;44459;43.522;24.470;2023-04-21T02:08:02;99682.88;;;10.86;95.53
57572;BME280;44459;43.522;24.470;2023-04-21T02:10:27;99693.41;;;10.92;95.15
57572;BME280;44459;43.522;24.470;2023-04-21T02:12:53;99689.88;;;10.96;95.53
57572;BME280;44459;43.522;24.470;2023-04-21T02:15:18;99686.34;;;10.94;94.60
57572;BME280;44459;43.522;24.470;2023-04-21T02:17:43;99683.72;;;10.93;95.52
57572;BME280;44459;43.522;24.470;2023-04-21T02:20:09;99691.63;;;10.97;94.94
57572;BME280;44459;43.522;24.470;2023-04-21T02:22:37;99689.88;;;10.95;94.65
57572;BME280;44459;43.522;24.470;2023-04-21T02:25:02;99695.16;;;10.99;94.93
57572;BME280;44459;43.522;24.470;2023-04-21T02:27:28;99689.84;;;10.98;95.39
57572;BME280;44459;43.522;24.470;2023-04-21T02:29:54;99680.19;;;10.94;95.32
57572;BME280;44459;43.522;24.470;2023-04-21T02:32:19;99680.22;;;10.89;95.60
57572;BME280;44459;43.522;24.470;2023-04-21T02:34:44;99684.63;;;10.84;95.81
57572;BME280;44459;43.522;24.470;2023-04-21T02:37:10;99685.53;;;10.79;95.65
57572;BME280;44459;43.522;24.470;2023-04-21T02:39:35;99689.97;;;10.75;96.45
57572;BME280;44459;43.522;24.470;2023-04-21T02:42:01;99685.59;;;10.68;96.47
57572;BME280;44459;43.522;24.470;2023-04-21T02:44:26;99690.88;;;10.64;97.29
57572;BME280;44459;43.522;24.470;2023-04-21T02:46:51;99688.22;;;10.59;97.38
57572;BME280;44459;43.522;24.470;2023-04-21T02:49:17;99684.75;;;10.54;97.33
57572;BME280;44459;43.522;24.470;2023-04-21T02:51:42;99686.53;;;10.47;97.95
57572;BME280;44459;43.522;24.470;2023-04-21T02:54:08;99686.53;;;10.43;98.34
57572;BME280;44459;43.522;24.470;2023-04-21T02:56:33;99690.03;;;10.45;98.78
57572;BME280;44459;43.522;24.470;2023-04-21T02:58:59;99688.31;;;10.41;98.54
57572;BME280;44459;43.522;24.470;2023-04-21T03:01:24;99690.06;;;10.37;98.70
57572;BME280;44459;43.522;24.470;2023-04-21T03:03:50;99687.44;;;10.33;98.31
57572;BME280;44459;43.522;24.470;2023-04-21T03:06:16;99687.44;;;10.27;99.08
57572;BME280;44459;43.522;24.470;2023-04-21T03:08:41;99690.97;;;10.15;99.48
57572;BME280;44459;43.522;24.470;2023-04-21T03:11:07;99692.72;;;10.13;100.00
57572;BME280;44459;43.522;24.470;2023-04-21T03:13:32;99689.16;;;10.11;99.94
57572;BME280;44459;43.522;24.470;2023-04-21T03:15:57;99700.63;;;10.05;100.00
57572;BME280;44459;43.522;24.470;2023-04-21T03:18:23;99691.81;;;10.02;100.00
57572;BME280;44459;43.522;24.470;2023-04-21T03:20:48;99693.59;;;10.01;100.00
57572;BME280;44459;43.522;24.470;2023-04-21T03:23:14;99697.09;;;10.00;100.00
57572;BME280;44459;43.522;24.470;2023-04-21T03:25:40;99691.81;;;9.91;100.00
57572;BME280;44459;43.522;24.470;2023-04-21T03:28:05;99701.47;;;9.83;100.00
57572;BME280;44459;43.522;24.470;2023-04-21T03:30:31;99697.09;;;9.84;100.00
57572;BME280;44459;43.522;24.470;2023-04-21T03:32:56;99697.97;;;9.78;100.00
57572;BME280;44459;43.522;24.470;2023-04-21T03:35:23;99691.81;;;9.69;100.00
57572;BME280;44459;43.522;24.470;2023-04-21T03:37:48;99695.31;;;9.72;100.00
57572;BME280;44459;43.522;24.470;2023-04-21T03:40:14;99697.97;;;9.66;100.00
57572;BME280;44459;43.522;24.470;2023-04-21T03:42:39;99694.47;;;9.61;100.00
57572;BME280;44459;43.522;24.470;2023-04-21T03:45:06;99696.19;;;9.59;100.00
57572;BME280;44459;43.522;24.470;2023-04-21T03:47:32;99704.13;;;9.57;100.00
57572;BME280;44459;43.522;24.470;2023-04-21T03:49:58;99710.25;;;9.56;100.00
57572;BME280;44459;43.522;24.470;2023-04-21T03:52:23;99711.97;;;9.41;100.00
57572;BME280;44459;43.522;24.470;2023-04-21T03:54:49;99723.34;;;9.34;100.00
57572;BME280;44459;43.522;24.470;2023-04-21T03:57:15;99730.38;;;9.26;100.00
57572;BME280;44459;43.522;24.470;2023-04-21T03:59:40;99731.22;;;9.20;100.00
57572;BME280;44459;43.522;24.470;2023-04-21T04:02:06;99732.06;;;9.12;100.00
57572;BME280;44459;43.522;24.470;2023-04-21T04:04:31;99732.06;;;9.05;100.00
57572;BME280;44459;43.522;24.470;2023-04-21T04:06:57;99738.19;;;9.04;100.00
57572;BME280;44459;43.522;24.470;2023-04-21T04:09:23;99743.50;;;9.09;100.00
57572;BME280;44459;43.522;24.470;2023-04-21T04:11:49;99753.13;;;9.12;100.00
57572;BME280;44459;43.522;24.470;2023-04-21T04:14:14;99751.44;;;9.26;100.00
57572;BME280;44459;43.522;24.470;2023-04-21T04:16:40;99746.19;;;9.32;100.00
57572;BME280;44459;43.522;24.470;2023-04-21T04:19:08;99759.41;;;9.48;100.00
57572;BME280;44459;43.522;24.470;2023-04-21T04:21:34;99748.00;;;9.51;100.00
57572;BME280;44459;43.522;24.470;2023-04-21T04:23:59;99752.44;;;9.67;100.00
57572;BME280;44459;43.522;24.470;2023-04-21T04:26:26;99759.47;;;9.80;100.00
57572;BME280;44459;43.522;24.470;2023-04-21T04:28:52;99763.88;;;9.93;100.00
57572;BME280;44459;43.522;24.470;2023-04-21T04:31:21;99759.50;;;9.98;100.00
57572;BME280;44459;43.522;24.470;2023-04-21T04:33:46;99763.03;;;9.99;100.00
57572;BME280;44459;43.522;24.470;2023-04-21T04:36:12;99770.03;;;10.01;100.00
57572;BME280;44459;43.522;24.470;2023-04-21T04:38:38;99772.69;;;10.07;100.00
57572;BME280;44459;43.522;24.470;2023-04-21T04:41:04;99765.66;;;10.09;100.00
57572;BME280;44459;43.522;24.470;2023-04-21T04:43:30;99784.16;;;10.19;100.00
57572;BME280;44459;43.522;24.470;2023-04-21T04:46:04;99787.66;;;10.21;99.80
57572;BME280;44459;43.522;24.470;2023-04-21T04:48:30;99781.50;;;10.22;99.73
57572;BME280;44459;43.522;24.470;2023-04-21T04:50:55;99791.19;;;10.32;99.37
57572;BME280;44459;43.522;24.470;2023-04-21T04:53:21;99786.78;;;10.22;98.64
57572;BME280;44459;43.522;24.470;2023-04-21T04:55:46;99793.81;;;10.29;98.22
57572;BME280;44459;43.522;24.470;2023-04-21T04:58:12;99797.34;;;10.40;99.24
57572;BME280;44459;43.522;24.470;2023-04-21T05:00:37;99798.22;;;10.51;99.80
57572;BME280;44459;43.522;24.470;2023-04-21T05:03:03;99798.22;;;10.60;97.97
57572;BME280;44459;43.522;24.470;2023-04-21T05:05:29;99810.50;;;10.70;97.54
57572;BME280;44459;43.522;24.470;2023-04-21T05:07:55;99804.34;;;10.71;97.66
57572;BME280;44459;43.522;24.470;2023-04-21T05:10:20;99802.56;;;10.76;96.88
57572;BME280;44459;43.522;24.470;2023-04-21T05:12:46;99807.00;;;10.79;96.19
57572;BME280;44459;43.522;24.470;2023-04-21T05:15:11;99804.31;;;10.83;95.28
57572;BME280;44459;43.522;24.470;2023-04-21T05:17:37;99806.09;;;10.89;95.87
57572;BME280;44459;43.522;24.470;2023-04-21T05:20:06;99813.13;;;10.88;94.57
57572;BME280;44459;43.522;24.470;2023-04-21T05:22:39;99815.75;;;10.90;95.44
57572;BME280;44459;43.522;24.470;2023-04-21T05:25:05;99813.97;;;10.93;94.69
57572;BME280;44459;43.522;24.470;2023-04-21T05:27:31;99821.03;;;10.88;94.59
57572;BME280;44459;43.522;24.470;2023-04-21T05:29:58;99823.66;;;10.90;94.79
57572;BME280;44459;43.522;24.470;2023-04-21T05:32:23;99821.94;;;10.84;95.57
57572;BME280;44459;43.522;24.470;2023-04-21T05:34:49;99822.81;;;10.85;95.69
57572;BME280;44459;43.522;24.470;2023-04-21T05:37:14;99829.84;;;10.87;95.63
57572;BME280;44459;43.522;24.470;2023-04-21T05:39:40;99827.22;;;10.84;96.48
57572;BME280;44459;43.522;24.470;2023-04-21T05:42:08;99826.31;;;10.87;96.00
57572;BME280;44459;43.522;24.470;2023-04-21T05:44:34;99825.44;;;10.83;96.30
57572;BME280;44459;43.522;24.470;2023-04-21T05:47:00;99825.44;;;10.80;96.96
57572;BME280;44459;43.522;24.470;2023-04-21T05:49:25;99825.47;;;10.86;98.37
57572;BME280;44459;43.522;24.470;2023-04-21T05:51:51;99825.47;;;10.82;98.25
57572;BME280;44459;43.522;24.470;2023-04-21T05:54:16;99835.13;;;10.95;99.88
57572;BME280;44459;43.522;24.470;2023-04-21T05:56:41;99828.97;;;10.91;98.83
57572;BME280;44459;43.522;24.470;2023-04-21T05:59:07;99830.69;;;10.97;99.29
57572;BME280;44459;43.522;24.470;2023-04-21T06:01:32;99835.09;;;11.01;98.45
57572;BME280;44459;43.522;24.470;2023-04-21T06:03:58;99826.28;;;11.05;98.80
57572;BME280;44459;43.522;24.470;2023-04-21T06:06:25;99830.69;;;11.09;98.73
57572;BME280;44459;43.522;24.470;2023-04-21T06:08:50;99828.91;;;11.20;98.65
57572;BME280;44459;43.522;24.470;2023-04-21T06:11:15;99828.88;;;11.28;97.75
57572;BME280;44459;43.522;24.470;2023-04-21T06:13:41;99828.81;;;11.40;97.46
57572;BME280;44459;43.522;24.470;2023-04-21T06:16:06;99826.19;;;11.38;97.04
57572;BME280;44459;43.522;24.470;2023-04-21T06:18:32;99820.00;;;11.44;97.08
57572;BME280;44459;43.522;24.470;2023-04-21T06:20:57;99821.69;;;11.57;97.40
57572;BME280;44459;43.522;24.470;2023-04-21T06:23:22;99831.41;;;11.58;95.09
57572;BME280;44459;43.522;24.470;2023-04-21T06:26:05;99828.75;;;11.58;95.04
57572;BME280;44459;43.522;24.470;2023-04-21T06:28:35;99833.97;;;11.70;94.90
57572;BME280;44459;43.522;24.470;2023-04-21T06:31:02;99833.13;;;11.70;94.65
57572;BME280;44459;43.522;24.470;2023-04-21T06:33:27;99841.84;;;11.88;94.96
57572;BME280;44459;43.522;24.470;2023-04-21T06:35:54;99844.47;;;11.91;94.22
57572;BME280;44459;43.522;24.470;2023-04-21T06:38:19;99840.91;;;11.98;94.64
57572;BME280;44459;43.522;24.470;2023-04-21T06:40:45;99845.31;;;11.95;92.88
57572;BME280;44459;43.522;24.470;2023-04-21T06:43:10;99840.94;;;11.94;92.39
57572;BME280;44459;43.522;24.470;2023-04-21T06:45:35;99848.91;;;11.85;92.87
57572;BME280;44459;43.522;24.470;2023-04-21T06:48:01;99852.44;;;11.84;93.50
57572;BME280;44459;43.522;24.470;2023-04-21T06:50:26;99848.84;;;12.00;93.67
57572;BME280;44459;43.522;24.470;2023-04-21T06:52:52;99853.31;;;11.90;92.67
57572;BME280;44459;43.522;24.470;2023-04-21T06:55:17;99850.59;;;12.02;93.28
57572;BME280;44459;43.522;24.470;2023-04-21T06:57:43;99856.72;;;12.10;92.53
57572;BME280;44459;43.522;24.470;2023-04-21T07:00:09;99850.53;;;12.15;92.65
57572;BME280;44459;43.522;24.470;2023-04-21T07:02:34;99835.44;;;12.23;93.31
57572;BME280;44459;43.522;24.470;2023-04-21T07:05:00;99845.00;;;12.45;94.09
57572;BME280;44459;43.522;24.470;2023-04-21T07:07:25;99848.47;;;12.50;93.84
57572;BME280;44459;43.522;24.470;2023-04-21T07:09:51;99846.59;;;12.66;92.77
57572;BME280;44459;43.522;24.470;2023-04-21T07:12:16;99854.66;;;12.52;91.81
57572;BME280;44459;43.522;24.470;2023-04-21T07:14:41;99845.00;;;12.45;91.67
57572;BME280;44459;43.522;24.470;2023-04-21T07:17:07;99851.03;;;12.62;91.42
57572;BME280;44459;43.522;24.470;2023-04-21T07:19:32;99851.91;;;12.61;91.35
57572;BME280;44459;43.522;24.470;2023-04-21T07:21:58;99842.16;;;12.68;90.97
57572;BME280;44459;43.522;24.470;2023-04-21T07:24:23;99853.72;;;12.57;91.15
57572;BME280;44459;43.522;24.470;2023-04-21T07:26:49;99856.28;;;12.70;90.61
57572;BME280;44459;43.522;24.470;2023-04-21T07:29:14;99846.41;;;12.85;91.15
57572;BME280;44459;43.522;24.470;2023-04-21T07:31:40;99861.28;;;13.01;90.35
57572;BME280;44459;43.522;24.470;2023-04-21T07:34:05;99848.97;;;12.94;88.12
57572;BME280;44459;43.522;24.470;2023-04-21T07:36:30;99850.78;;;12.89;89.18
57572;BME280;44459;43.522;24.470;2023-04-21T07:38:56;99855.22;;;12.84;90.48
57572;BME280;44459;43.522;24.470;2023-04-21T07:41:21;99868.44;;;12.89;89.74
57572;BME280;44459;43.522;24.470;2023-04-21T07:43:47;99874.63;;;12.89;88.54
57572;BME280;44459;43.522;24.470;2023-04-21T07:46:12;99875.47;;;12.94;89.41
57572;BME280;44459;43.522;24.470;2023-04-21T07:48:39;99876.34;;;12.98;90.80
57572;BME280;44459;43.522;24.470;2023-04-21T07:51:05;99883.50;;;12.87;89.31
57572;BME280;44459;43.522;24.470;2023-04-21T07:53:30;99883.44;;;12.93;90.30
57572;BME280;44459;43.522;24.470;2023-04-21T07:55:56;99881.63;;;12.95;89.36
57572;BME280;44459;43.522;24.470;2023-04-21T07:58:21;99884.28;;;12.98;89.75
57572;BME280;44459;43.522;24.470;2023-04-21T08:00:47;99882.50;;;12.95;91.00
57572;BME280;44459;43.522;24.470;2023-04-21T08:03:13;99877.06;;;13.14;92.60
57572;BME280;44459;43.522;24.470;2023-04-21T08:05:39;99887.53;;;13.27;90.41
57572;BME280;44459;43.522;24.470;2023-04-21T08:08:05;99885.66;;;13.38;90.39
57572;BME280;44459;43.522;24.470;2023-04-21T08:10:31;99871.41;;;13.47;91.75
57572;BME280;44459;43.522;24.470;2023-04-21T08:12:57;99883.72;;;13.52;89.46
57572;BME280;44459;43.522;24.470;2023-04-21T08:15:22;99874.75;;;13.63;89.64
57572;BME280;44459;43.522;24.470;2023-04-21T08:17:48;99879.72;;;13.88;90.40
57572;BME280;44459;43.522;24.470;2023-04-21T08:20:14;99880.41;;;14.05;87.18
57572;BME280;44459;43.522;24.470;2023-04-21T08:22:39;99872.13;;;14.27;84.96
57572;BME280;44459;43.522;24.470;2023-04-21T08:25:05;99879.75;;;14.51;85.30
57572;BME280;44459;43.522;24.470;2023-04-21T08:27:31;99876.75;;;14.72;80.77
57572;BME280;44459;43.522;24.470;2023-04-21T08:29:56;99876.56;;;14.84;78.70
57572;BME280;44459;43.522;24.470;2023-04-21T08:32:22;99876.19;;;15.05;78.10
57572;BME280;44459;43.522;24.470;2023-04-21T08:34:53;99868.53;;;15.36;75.96
57572;BME280;44459;43.522;24.470;2023-04-21T08:37:19;99882.59;;;15.43;73.78
57572;BME280;44459;43.522;24.470;2023-04-21T08:39:46;99873.94;;;15.76;73.34
57572;BME280;44459;43.522;24.470;2023-04-21T08:42:13;99870.09;;;16.31;72.76
57572;BME280;44459;43.522;24.470;2023-04-21T08:44:41;99877.31;;;16.26;70.29
57572;BME280;44459;43.522;24.470;2023-04-21T08:47:09;99878.72;;;16.02;70.01
57572;BME280;44459;43.522;24.470;2023-04-21T08:49:36;99885.13;;;15.93;70.62
57572;BME280;44459;43.522;24.470;2023-04-21T08:52:02;99880.31;;;15.69;70.78
57572;BME280;44459;43.522;24.470;2023-04-21T08:54:28;99878.38;;;15.77;72.13
57572;BME280;44459;43.522;24.470;2023-04-21T08:56:53;99883.75;;;15.76;70.16
57572;BME280;44459;43.522;24.470;2023-04-21T08:59:19;99878.41;;;15.76;71.41
57572;BME280;44459;43.522;24.470;2023-04-21T09:02:07;99887.97;;;15.86;75.21
57572;BME280;44459;43.522;24.470;2023-04-21T09:04:33;99880.44;;;16.04;77.64
57572;BME280;44459;43.522;24.470;2023-04-21T09:06:59;99877.47;;;16.18;77.21
57572;BME280;44459;43.522;24.470;2023-04-21T09:09:25;99876.31;;;15.90;73.76
57572;BME280;44459;43.522;24.470;2023-04-21T09:11:54;99874.16;;;16.08;74.11
57572;BME280;44459;43.522;24.470;2023-04-21T09:14:21;99872.44;;;16.44;75.34
57572;BME280;44459;43.522;24.470;2023-04-21T09:16:58;99865.22;;;16.86;72.93
57572;BME280;44459;43.522;24.470;2023-04-21T09:19:26;99864.50;;;16.80;69.52
57572;BME280;44459;43.522;24.470;2023-04-21T09:21:52;99877.94;;;16.75;65.48
57572;BME280;44459;43.522;24.470;2023-04-21T09:24:17;99872.88;;;17.00;67.07
57572;BME280;44459;43.522;24.470;2023-04-21T09:26:44;99877.78;;;17.15;70.28
57572;BME280;44459;43.522;24.470;2023-04-21T09:29:13;99870.75;;;17.13;66.82
57572;BME280;44459;43.522;24.470;2023-04-21T09:31:39;99868.41;;;17.00;66.50
57572;BME280;44459;43.522;24.470;2023-04-21T09:34:17;99874.75;;;16.95;66.62
57572;BME280;44459;43.522;24.470;2023-04-21T09:36:44;99868.00;;;16.82;66.24
57572;BME280;44459;43.522;24.470;2023-04-21T09:39:10;99873.63;;;16.70;67.19
57572;BME280;44459;43.522;24.470;2023-04-21T09:41:35;99879.38;;;16.88;67.93
57572;BME280;44459;43.522;24.470;2023-04-21T09:44:01;99865.59;;;17.06;68.50
57572;BME280;44459;43.522;24.470;2023-04-21T09:46:31;99868.22;;;17.40;70.19
57572;BME280;44459;43.522;24.470;2023-04-21T09:48:59;99860.44;;;17.65;68.97
57572;BME280;44459;43.522;24.470;2023-04-21T09:51:26;99854.59;;;17.82;68.60
57572;BME280;44459;43.522;24.470;2023-04-21T09:53:53;99855.19;;;18.22;65.15
57572;BME280;44459;43.522;24.470;2023-04-21T09:56:24;99862.34;;;18.48;63.10
57572;BME280;44459;43.522;24.470;2023-04-21T09:58:55;99857.69;;;18.56;60.87
57572;BME280;44459;43.522;24.470;2023-04-21T10:01:23;99855.19;;;18.50;59.54
57572;BME280;44459;43.522;24.470;2023-04-21T10:03:51;99857.69;;;18.27;58.63
57572;BME280;44459;43.522;24.470;2023-04-21T10:06:18;99850.34;;;18.33;59.88
57572;BME280;44459;43.522;24.470;2023-04-21T10:08:44;99855.00;;;18.56;58.66
57572;BME280;44459;43.522;24.470;2023-04-21T10:11:10;99848.63;;;18.60;55.08
57572;BME280;44459;43.522;24.470;2023-04-21T10:13:37;99839.06;;;18.79;55.32
57572;BME280;44459;43.522;24.470;2023-04-21T10:16:07;99848.78;;;19.08;55.61
57572;BME280;44459;43.522;24.470;2023-04-21T10:18:37;99841.25;;;19.19;54.94
57572;BME280;44459;43.522;24.470;2023-04-21T10:21:09;99836.56;;;19.26;55.13
57572;BME280;44459;43.522;24.470;2023-04-21T10:23:40;99834.34;;;19.37;57.57
57572;BME280;44459;43.522;24.470;2023-04-21T10:28:42;99832.63;;;19.61;57.27
57572;BME280;44459;43.522;24.470;2023-04-21T10:31:30;99840.91;;;19.78;53.71
57572;BME280;44459;43.522;24.470;2023-04-21T10:37:07;99829.22;;;19.80;50.79
57572;BME280;44459;43.522;24.470;2023-04-21T10:39:34;99834.72;;;19.76;47.62
57572;BME280;44459;43.522;24.470;2023-04-21T10:44:50;99826.13;;;19.68;48.81
57572;BME280;44459;43.522;24.470;2023-04-21T10:50:12;99821.69;;;19.90;49.07
57572;BME280;44459;43.522;24.470;2023-04-21T10:52:37;99820.25;;;19.81;51.53
57572;BME280;44459;43.522;24.470;2023-04-21T10:55:05;99823.03;;;20.01;51.88
57572;BME280;44459;43.522;24.470;2023-04-21T10:57:32;99814.69;;;20.09;53.85
57572;BME280;44459;43.522;24.470;2023-04-21T10:59:58;99816.75;;;20.24;52.99
57572;BME280;44459;43.522;24.470;2023-04-21T11:02:24;99813.13;;;20.25;50.77
57572;BME280;44459;43.522;24.470;2023-04-21T11:04:52;99820.00;;;20.34;51.02
57572;BME280;44459;43.522;24.470;2023-04-21T11:07:22;99816.53;;;20.52;52.90
57572;BME280;44459;43.522;24.470;2023-04-21T11:09:59;99810.00;;;20.59;49.30
57572;BME280;44459;43.522;24.470;2023-04-21T11:12:33;99813.09;;;20.48;48.50
57572;BME280;44459;43.522;24.470;2023-04-21T11:15:03;99816.59;;;20.29;50.36
57572;BME280;44459;43.522;24.470;2023-04-21T11:17:29;99810.09;;;20.13;50.29
57572;BME280;44459;43.522;24.470;2023-04-21T11:19:55;99812.78;;;19.66;51.99
57572;BME280;44459;43.522;24.470;2023-04-21T11:22:22;99812.84;;;19.40;52.60
57572;BME280;44459;43.522;24.470;2023-04-21T11:24:50;99809.34;;;19.13;49.97
57572;BME280;44459;43.522;24.470;2023-04-21T11:27:16;99805.72;;;19.16;53.34
57572;BME280;44459;43.522;24.470;2023-04-21T11:29:45;99800.63;;;19.08;51.95
57572;BME280;44459;43.522;24.470;2023-04-21T11:32:11;99796.34;;;18.78;50.31
57572;BME280;44459;43.522;24.470;2023-04-21T11:34:37;99795.91;;;18.90;50.06
57572;BME280;44459;43.522;24.470;2023-04-21T11:37:02;99792.75;;;19.03;51.77
57572;BME280;44459;43.522;24.470;2023-04-21T11:39:28;99794.00;;;19.18;52.10
57572;BME280;44459;43.522;24.470;2023-04-21T11:41:53;99794.72;;;19.48;48.97
57572;BME280;44459;43.522;24.470;2023-04-21T11:44:33;99797.75;;;19.37;51.39
57572;BME280;44459;43.522;24.470;2023-04-21T11:46:58;99797.28;;;19.51;47.76
57572;BME280;44459;43.522;24.470;2023-04-21T11:49:25;99777.72;;;19.72;49.11
57572;BME280;44459;43.522;24.470;2023-04-21T11:51:53;99781.22;;;20.19;53.65
57572;BME280;44459;43.522;24.470;2023-04-21T11:54:19;99790.50;;;20.10;48.60
57572;BME280;44459;43.522;24.470;2023-04-21T11:56:47;99794.34;;;19.82;47.96
57572;BME280;44459;43.522;24.470;2023-04-21T11:59:15;99792.88;;;19.73;49.21
57572;BME280;44459;43.522;24.470;2023-04-21T12:01:48;99797.50;;;19.45;48.24
57572;BME280;44459;43.522;24.470;2023-04-21T12:04:15;99784.56;;;19.57;49.26
57572;BME280;44459;43.522;24.470;2023-04-21T12:06:41;99793.28;;;19.38;48.23
57572;BME280;44459;43.522;24.470;2023-04-21T12:09:07;99798.09;;;19.53;50.02
57572;BME280;44459;43.522;24.470;2023-04-21T12:11:40;99791.00;;;19.27;50.83
57572;BME280;44459;43.522;24.470;2023-04-21T12:14:07;99789.69;;;19.39;51.20
57572;BME280;44459;43.522;24.470;2023-04-21T12:16:32;99779.09;;;19.61;50.72
57572;BME280;44459;43.522;24.470;2023-04-21T12:19:00;99781.31;;;19.48;49.68
57572;BME280;44459;43.522;24.470;2023-04-21T12:21:27;99776.09;;;19.45;50.25
57572;BME280;44459;43.522;24.470;2023-04-21T12:23:52;99781.56;;;19.42;47.27
57572;BME280;44459;43.522;24.470;2023-04-21T12:26:18;99779.47;;;19.50;47.82
57572;BME280;44459;43.522;24.470;2023-04-21T12:28:43;99769.28;;;19.83;45.50
57572;BME280;44459;43.522;24.470;2023-04-21T12:31:09;99775.13;;;19.92;50.54
57572;BME280;44459;43.522;24.470;2023-04-21T12:33:34;99773.00;;;19.79;50.03
57572;BME280;44459;43.522;24.470;2023-04-21T12:36:00;99767.94;;;19.94;53.64
57572;BME280;44459;43.522;24.470;2023-04-21T12:38:25;99754.84;;;20.08;53.05
57572;BME280;44459;43.522;24.470;2023-04-21T12:40:51;99763.06;;;20.04;53.44
57572;BME280;44459;43.522;24.470;2023-04-21T12:43:16;99761.41;;;20.01;56.10
57572;BME280;44459;43.522;24.470;2023-04-21T12:45:43;99754.59;;;20.15;56.26
57572;BME280;44459;43.522;24.470;2023-04-21T12:48:08;99750.78;;;20.20;55.92
57572;BME280;44459;43.522;24.470;2023-04-21T12:50:34;99759.31;;;19.86;53.47
57572;BME280;44459;43.522;24.470;2023-04-21T12:52:59;99755.25;;;19.76;54.35
57572;BME280;44459;43.522;24.470;2023-04-21T12:55:25;99750.28;;;19.89;55.37